sensor_id;sensor_type;location;lat;lon;timestamp;pressure;altitude;pressure_sealevel;temperature;humidity
48848;BME280;36611;51.638;5.784;2022-08-11T00:01:57;102089.09;;;23.74;39.84
48848;BME280;36611;51.638;5.784;2022-08-11T00:04:26;102088.41;;;23.72;39.85
48848;BME280;36611;51.638;5.784;2022-08-11T00:07:02;102088.72;;;23.69;39.74
48848;BME280;36611;51.638;5.784;2022-08-11T00:09:32;102085.44;;;23.65;39.79
48848;BME280;36611;51.638;5.784;2022-08-11T00:12:12;102079.44;;;23.62;39.95
48848;BME280;36611;51.638;5.784;2022-08-11T00:14:40;102083.38;;;23.59;39.87
48848;BME280;36611;51.638;5.784;2022-08-11T00:17:11;102083.53;;;23.58;40.00
48848;BME280;36611;51.638;5.784;2022-08-11T00:19:42;102090.03;;;23.57;40.35
48848;BME280;36611;51.638;5.784;2022-08-11T00:22:29;102082.97;;;23.54;39.98
48848;BME280;36611;51.638;5.784;2022-08-11T00:24:59;102093.94;;;23.54;40.04
48848;BME280;36611;51.638;5.784;2022-08-11T00:27:36;102092.38;;;23.52;40.07
48848;BME280;36611;51.638;5.784;2022-08-11T00:30:04;102085.34;;;23.49;40.16
48848;BME280;36611;51.638;5.784;2022-08-11T00:32:32;102085.50;;;23.48;40.19
48848;BME280;36611;51.638;5.784;2022-08-11T00:35:01;102096.63;;;23.46;40.49
48848;BME280;36611;51.638;5.784;2022-08-11T00:37:49;102091.31;;;23.44;40.37
48848;BME280;36611;51.638;5.784;2022-08-11T00:40:23;102087.00;;;23.42;40.44
48848;BME280;36611;51.638;5.784;2022-08-11T00:45:38;102084.75;;;23.37;40.36
48848;BME280;36611;51.638;5.784;2022-08-11T00:48:22;102085.09;;;23.34;40.66
48848;BME280;36611;51.638;5.784;2022-08-11T00:53:36;102083.69;;;23.30;40.95
48848;BME280;36611;51.638;5.784;2022-08-11T01:02:12;102086.72;;;23.19;40.80
48848;BME280;36611;51.638;5.784;2022-08-11T01:10:31;102076.34;;;23.05;41.10
48848;BME280;36611;51.638;5.784;2022-08-11T01:15:57;102075.94;;;23.00;41.36
48848;BME280;36611;51.638;5.784;2022-08-11T01:18:37;102080.00;;;22.96;41.12
48848;BME280;36611;51.638;5.784;2022-08-11T01:24:14;102084.72;;;22.86;41.61
48848;BME280;36611;51.638;5.784;2022-08-11T01:30:06;102091.13;;;22.76;41.45
48848;BME280;36611;51.638;5.784;2022-08-11T01:38:45;102097.16;;;22.62;41.58
48848;BME280;36611;51.638;5.784;2022-08-11T01:47:25;102092.63;;;22.53;41.89
48848;BME280;36611;51.638;5.784;2022-08-11T01:58:37;102092.88;;;22.42;41.96
48848;BME280;36611;51.638;5.784;2022-08-11T02:01:43;102086.84;;;22.38;42.10
48848;BME280;36611;51.638;5.784;2022-08-11T02:04:18;102086.84;;;22.38;42.01
48848;BME280;36611;51.638;5.784;2022-08-11T02:19:38;102086.19;;;22.27;42.47
48848;BME280;36611;51.638;5.784;2022-08-11T02:22:17;102086.50;;;22.24;42.52
48848;BME280;36611;51.638;5.784;2022-08-11T02:25:20;102082.03;;;22.23;42.35
48848;BME280;36611;51.638;5.784;2022-08-11T02:28:02;102089.53;;;22.20;42.37
48848;BME280;36611;51.638;5.784;2022-08-11T02:30:37;102094.16;;;22.20;42.67
48848;BME280;36611;51.638;5.784;2022-08-11T02:33:15;102090.69;;;22.18;42.33
48848;BME280;36611;51.638;5.784;2022-08-11T02:36:07;102098.22;;;22.16;42.30
48848;BME280;36611;51.638;5.784;2022-08-11T02:38:58;102083.81;;;22.14;42.72
48848;BME280;36611;51.638;5.784;2022-08-11T02:55:20;102077.81;;;22.01;43.08
48848;BME280;36611;51.638;5.784;2022-08-11T02:58:45;102079.84;;;21.99;42.97
48848;BME280;36611;51.638;5.784;2022-08-11T03:01:57;102076.41;;;21.97;43.06
48848;BME280;36611;51.638;5.784;2022-08-11T03:10:31;102085.53;;;21.87;43.10
48848;BME280;36611;51.638;5.784;2022-08-11T03:16:18;102081.38;;;21.83;43.20
48848;BME280;36611;51.638;5.784;2022-08-11T03:21:53;102087.16;;;21.80;43.49
48848;BME280;36611;51.638;5.784;2022-08-11T03:27:33;102091.91;;;21.78;43.29
48848;BME280;36611;51.638;5.784;2022-08-11T03:30:15;102083.00;;;21.76;43.53
48848;BME280;36611;51.638;5.784;2022-08-11T03:33:07;102079.41;;;21.76;43.51
48848;BME280;36611;51.638;5.784;2022-08-11T03:36:09;102075.97;;;21.74;43.42
48848;BME280;36611;51.638;5.784;2022-08-11T03:38:55;102085.19;;;21.73;43.65
48848;BME280;36611;51.638;5.784;2022-08-11T03:41:35;102081.75;;;21.71;43.86
48848;BME280;36611;51.638;5.784;2022-08-11T03:44:54;102079.31;;;21.68;43.87
48848;BME280;36611;51.638;5.784;2022-08-11T03:50:11;102079.63;;;21.65;43.81
48848;BME280;36611;51.638;5.784;2022-08-11T04:01:47;102078.06;;;21.52;44.25
48848;BME280;36611;51.638;5.784;2022-08-11T04:16:14;102075.38;;;21.43;44.26
48848;BME280;36611;51.638;5.784;2022-08-11T04:24:26;102078.84;;;21.35;44.19
48848;BME280;36611;51.638;5.784;2022-08-11T04:27:17;102079.84;;;21.34;44.43
48848;BME280;36611;51.638;5.784;2022-08-11T04:30:26;102073.81;;;21.31;44.52
48848;BME280;36611;51.638;5.784;2022-08-11T04:39:07;102077.16;;;21.24;44.71
48848;BME280;36611;51.638;5.784;2022-08-11T04:45:47;102074.97;;;21.18;45.00
48848;BME280;36611;51.638;5.784;2022-08-11T04:48:22;102076.84;;;21.18;44.75
48848;BME280;36611;51.638;5.784;2022-08-11T04:51:42;102077.31;;;21.13;45.31
48848;BME280;36611;51.638;5.784;2022-08-11T04:54:53;102078.16;;;21.14;45.00
48848;BME280;36611;51.638;5.784;2022-08-11T04:57:46;102079.03;;;21.14;44.91
48848;BME280;36611;51.638;5.784;2022-08-11T05:12:40;102078.88;;;21.16;45.52
48848;BME280;36611;51.638;5.784;2022-08-11T05:15:23;102083.31;;;21.17;45.46
48848;BME280;36611;51.638;5.784;2022-08-11T05:18:21;102080.31;;;21.20;45.55
48848;BME280;36611;51.638;5.784;2022-08-11T05:21:11;102081.00;;;21.22;45.55
48848;BME280;36611;51.638;5.784;2022-08-11T05:24:35;102087.06;;;21.25;46.08
48848;BME280;36611;51.638;5.784;2022-08-11T05:30:31;102087.75;;;21.37;46.16
48848;BME280;36611;51.638;5.784;2022-08-11T05:33:23;102091.03;;;21.41;45.98
48848;BME280;36611;51.638;5.784;2022-08-11T05:36:30;102084.38;;;21.53;45.51
48848;BME280;36611;51.638;5.784;2022-08-11T05:39:02;102092.31;;;21.56;45.62
48848;BME280;36611;51.638;5.784;2022-08-11T05:42:04;102090.84;;;21.62;45.95
48848;BME280;36611;51.638;5.784;2022-08-11T05:45:00;102097.75;;;21.66;45.87
48848;BME280;36611;51.638;5.784;2022-08-11T05:47:49;102088.22;;;21.70;46.13
48848;BME280;36611;51.638;5.784;2022-08-11T05:50:35;102094.41;;;21.72;46.12
48848;BME280;36611;51.638;5.784;2022-08-11T05:53:22;102093.09;;;21.76;46.16
48848;BME280;36611;51.638;5.784;2022-08-11T05:56:12;102095.22;;;21.82;46.33
48848;BME280;36611;51.638;5.784;2022-08-11T05:58:48;102093.75;;;21.87;45.90
48848;BME280;36611;51.638;5.784;2022-08-11T06:01:24;102092.28;;;21.93;46.01
48848;BME280;36611;51.638;5.784;2022-08-11T06:03:53;102088.63;;;22.02;45.86
48848;BME280;36611;51.638;5.784;2022-08-11T06:06:54;102095.63;;;22.14;46.05
48848;BME280;36611;51.638;5.784;2022-08-11T06:09:33;102086.34;;;22.25;46.14
48848;BME280;36611;51.638;5.784;2022-08-11T06:12:06;102088.00;;;22.36;45.93
48848;BME280;36611;51.638;5.784;2022-08-11T06:14:42;102096.00;;;22.47;45.99
48848;BME280;36611;51.638;5.784;2022-08-11T06:17:10;102093.00;;;22.58;45.82
48848;BME280;36611;51.638;5.784;2022-08-11T06:19:40;102096.38;;;22.70;45.99
48848;BME280;36611;51.638;5.784;2022-08-11T06:22:10;102097.88;;;22.82;45.67
48848;BME280;36611;51.638;5.784;2022-08-11T06:24:41;102095.59;;;22.95;45.34
48848;BME280;36611;51.638;5.784;2022-08-11T06:27:20;102102.22;;;23.10;45.37
48848;BME280;36611;51.638;5.784;2022-08-11T06:29:51;102103.53;;;23.24;45.31
48848;BME280;36611;51.638;5.784;2022-08-11T06:32:30;102103.94;;;23.37;44.73
48848;BME280;36611;51.638;5.784;2022-08-11T06:43:23;102096.13;;;24.19;44.38
48848;BME280;36611;51.638;5.784;2022-08-11T06:45:58;102100.66;;;24.44;44.42
48848;BME280;36611;51.638;5.784;2022-08-11T06:48:31;102100.38;;;24.63;43.99
48848;BME280;36611;51.638;5.784;2022-08-11T06:51:01;102092.81;;;24.82;43.65
48848;BME280;36611;51.638;5.784;2022-08-11T06:53:52;102100.06;;;24.99;43.16
48848;BME280;36611;51.638;5.784;2022-08-11T06:56:35;102102.44;;;25.18;43.09
48848;BME280;36611;51.638;5.784;2022-08-11T06:59:43;102095.72;;;25.37;43.06
48848;BME280;36611;51.638;5.784;2022-08-11T07:02:48;102101.50;;;25.58;42.79
48848;BME280;36611;51.638;5.784;2022-08-11T07:05:23;102102.16;;;25.77;42.30
48848;BME280;36611;51.638;5.784;2022-08-11T07:14:29;102098.81;;;26.28;41.63
48848;BME280;36611;51.638;5.784;2022-08-11T07:17:21;102101.88;;;26.42;41.35
48848;BME280;36611;51.638;5.784;2022-08-11T07:19:56;102092.81;;;26.56;40.92
48848;BME280;36611;51.638;5.784;2022-08-11T07:22:47;102100.09;;;26.72;40.90
48848;BME280;36611;51.638;5.784;2022-08-11T07:25:38;102096.00;;;26.90;40.44
48848;BME280;36611;51.638;5.784;2022-08-11T07:28:25;102103.78;;;27.10;40.32
48848;BME280;36611;51.638;5.784;2022-08-11T07:31:40;102097.72;;;27.29;39.90
48848;BME280;36611;51.638;5.784;2022-08-11T07:34:20;102102.19;;;27.45;39.50
48848;BME280;36611;51.638;5.784;2022-08-11T07:37:09;102103.28;;;27.59;39.29
48848;BME280;36611;51.638;5.784;2022-08-11T07:39:38;102100.16;;;27.76;38.97
48848;BME280;36611;51.638;5.784;2022-08-11T07:42:08;102098.22;;;27.92;38.90
48848;BME280;36611;51.638;5.784;2022-08-11T07:44:36;102091.63;;;28.07;38.61
48848;BME280;36611;51.638;5.784;2022-08-11T07:47:26;102090.56;;;28.23;38.40
48848;BME280;36611;51.638;5.784;2022-08-11T07:50:13;102095.88;;;28.39;38.03
48848;BME280;36611;51.638;5.784;2022-08-11T07:53:03;102091.03;;;28.63;37.46
48848;BME280;36611;51.638;5.784;2022-08-11T07:55:30;102097.59;;;28.83;37.33
48848;BME280;36611;51.638;5.784;2022-08-11T07:58:20;102098.69;;;29.03;36.95
48848;BME280;36611;51.638;5.784;2022-08-11T08:01:20;102099.44;;;29.19;36.73
48848;BME280;36611;51.638;5.784;2022-08-11T08:04:11;102087.41;;;29.33;36.39
48848;BME280;36611;51.638;5.784;2022-08-11T08:07:00;102089.22;;;29.47;36.13
48848;BME280;36611;51.638;5.784;2022-08-11T08:09:47;102092.50;;;29.64;35.93
48848;BME280;36611;51.638;5.784;2022-08-11T08:12:34;102086.47;;;29.82;35.81
48848;BME280;36611;51.638;5.784;2022-08-11T08:15:21;102091.44;;;29.99;35.60
48848;BME280;36611;51.638;5.784;2022-08-11T08:18:07;102089.59;;;30.13;35.00
48848;BME280;36611;51.638;5.784;2022-08-11T08:20:54;102089.00;;;30.24;34.55
48848;BME280;36611;51.638;5.784;2022-08-11T08:23:25;102090.50;;;30.33;34.25
48848;BME280;36611;51.638;5.784;2022-08-11T08:26:04;102091.84;;;30.51;34.04
48848;BME280;36611;51.638;5.784;2022-08-11T08:28:52;102082.53;;;30.72;34.12
48848;BME280;36611;51.638;5.784;2022-08-11T08:31:20;102085.50;;;30.83;33.59
48848;BME280;36611;51.638;5.784;2022-08-11T08:33:48;102086.78;;;30.94;33.51
48848;BME280;36611;51.638;5.784;2022-08-11T08:36:15;102084.22;;;31.06;33.16
48848;BME280;36611;51.638;5.784;2022-08-11T08:38:49;102091.28;;;31.15;32.59
48848;BME280;36611;51.638;5.784;2022-08-11T08:41:22;102090.03;;;31.24;32.69
48848;BME280;36611;51.638;5.784;2022-08-11T08:43:58;102079.97;;;31.36;32.68
48848;BME280;36611;51.638;5.784;2022-08-11T08:46:52;102085.69;;;31.54;32.47
48848;BME280;36611;51.638;5.784;2022-08-11T08:49:30;102086.72;;;31.67;32.40
48848;BME280;36611;51.638;5.784;2022-08-11T08:52:01;102091.81;;;31.83;32.14
48848;BME280;36611;51.638;5.784;2022-08-11T08:54:53;102086.88;;;31.98;31.38
48848;BME280;36611;51.638;5.784;2022-08-11T08:57:22;102085.75;;;32.06;31.18
48848;BME280;36611;51.638;5.784;2022-08-11T08:59:53;102088.06;;;32.15;31.36
48848;BME280;36611;51.638;5.784;2022-08-11T09:02:23;102092.50;;;32.23;30.71
48848;BME280;36611;51.638;5.784;2022-08-11T09:05:02;102086.72;;;32.31;30.48
48848;BME280;36611;51.638;5.784;2022-08-11T09:07:30;102075.34;;;32.39;30.47
48848;BME280;36611;51.638;5.784;2022-08-11T09:10:06;102083.81;;;32.51;30.55
48848;BME280;36611;51.638;5.784;2022-08-11T09:12:33;102082.25;;;32.62;30.05
48848;BME280;36611;51.638;5.784;2022-08-11T09:15:06;102086.91;;;32.68;29.43
48848;BME280;36611;51.638;5.784;2022-08-11T09:17:37;102079.38;;;32.75;29.58
48848;BME280;36611;51.638;5.784;2022-08-11T09:20:19;102081.28;;;32.81;29.51
48848;BME280;36611;51.638;5.784;2022-08-11T09:22:47;102076.75;;;32.87;29.28
48848;BME280;36611;51.638;5.784;2022-08-11T09:25:46;102073.91;;;32.93;29.33
48848;BME280;36611;51.638;5.784;2022-08-11T09:28:32;102087.53;;;33.01;29.12
48848;BME280;36611;51.638;5.784;2022-08-11T09:31:00;102075.66;;;33.12;28.96
48848;BME280;36611;51.638;5.784;2022-08-11T09:33:30;102075.13;;;33.22;28.46
48848;BME280;36611;51.638;5.784;2022-08-11T09:35:59;102069.72;;;33.27;28.48
48848;BME280;36611;51.638;5.784;2022-08-11T09:38:46;102066.44;;;33.37;28.25
48848;BME280;36611;51.638;5.784;2022-08-11T09:41:32;102066.78;;;33.47;28.10
48848;BME280;36611;51.638;5.784;2022-08-11T09:44:25;102070.13;;;33.56;27.88
48848;BME280;36611;51.638;5.784;2022-08-11T09:47:34;102067.25;;;33.62;27.77
48848;BME280;36611;51.638;5.784;2022-08-11T09:50:02;102071.03;;;33.68;27.36
48848;BME280;36611;51.638;5.784;2022-08-11T09:52:33;102063.31;;;33.70;27.69
48848;BME280;36611;51.638;5.784;2022-08-11T09:55:02;102055.47;;;33.78;27.51
48848;BME280;36611;51.638;5.784;2022-08-11T09:57:43;102060.75;;;33.87;26.98
48848;BME280;36611;51.638;5.784;2022-08-11T10:00:34;102051.38;;;33.99;27.28
48848;BME280;36611;51.638;5.784;2022-08-11T10:03:16;102054.19;;;34.11;26.70
48848;BME280;36611;51.638;5.784;2022-08-11T10:05:55;102052.16;;;34.18;26.60
48848;BME280;36611;51.638;5.784;2022-08-11T10:08:43;102045.69;;;34.24;26.84
48848;BME280;36611;51.638;5.784;2022-08-11T10:11:13;102046.66;;;34.30;26.47
48848;BME280;36611;51.638;5.784;2022-08-11T10:13:44;102048.53;;;34.36;26.69
48848;BME280;36611;51.638;5.784;2022-08-11T10:16:50;102046.38;;;34.50;26.62
48848;BME280;36611;51.638;5.784;2022-08-11T10:19:18;102031.84;;;34.59;26.32
48848;BME280;36611;51.638;5.784;2022-08-11T10:21:50;102035.97;;;34.68;25.79
48848;BME280;36611;51.638;5.784;2022-08-11T10:24:41;102032.00;;;34.76;25.50
48848;BME280;36611;51.638;5.784;2022-08-11T10:27:28;102024.59;;;34.82;25.16
48848;BME280;36611;51.638;5.784;2022-08-11T10:30:15;102020.63;;;34.89;25.04
48848;BME280;36611;51.638;5.784;2022-08-11T10:33:05;102029.28;;;34.99;25.13
48848;BME280;36611;51.638;5.784;2022-08-11T10:36:04;102018.22;;;35.16;24.76
48848;BME280;36611;51.638;5.784;2022-08-11T10:38:42;102027.66;;;35.27;24.71
48848;BME280;36611;51.638;5.784;2022-08-11T10:41:12;102023.69;;;35.34;24.57
48848;BME280;36611;51.638;5.784;2022-08-11T10:44:04;102019.91;;;35.41;24.18
48848;BME280;36611;51.638;5.784;2022-08-11T10:46:31;102023.75;;;35.51;24.47
48848;BME280;36611;51.638;5.784;2022-08-11T10:49:18;102022.03;;;35.62;23.58
48848;BME280;36611;51.638;5.784;2022-08-11T10:51:45;102017.44;;;35.67;23.83
48848;BME280;36611;51.638;5.784;2022-08-11T10:54:33;102014.00;;;35.77;23.60
48848;BME280;36611;51.638;5.784;2022-08-11T10:57:18;102014.84;;;35.89;23.50
48848;BME280;36611;51.638;5.784;2022-08-11T11:00:05;102012.13;;;35.94;22.73
48848;BME280;36611;51.638;5.784;2022-08-11T11:02:33;102015.88;;;36.00;22.82
48848;BME280;36611;51.638;5.784;2022-08-11T11:05:15;102010.63;;;36.04;22.52
48848;BME280;36611;51.638;5.784;2022-08-11T11:07:57;102009.63;;;36.10;22.61
48848;BME280;36611;51.638;5.784;2022-08-11T11:10:29;101998.63;;;36.20;22.63
48848;BME280;36611;51.638;5.784;2022-08-11T11:12:59;101997.38;;;36.27;21.95
48848;BME280;36611;51.638;5.784;2022-08-11T11:15:46;101997.50;;;36.33;22.35
48848;BME280;36611;51.638;5.784;2022-08-11T11:18:35;101998.09;;;36.35;22.03
48848;BME280;36611;51.638;5.784;2022-08-11T11:21:06;101997.06;;;36.41;21.70
48848;BME280;36611;51.638;5.784;2022-08-11T11:24:09;101986.50;;;36.43;21.17
48848;BME280;36611;51.638;5.784;2022-08-11T11:27:01;101988.88;;;36.51;21.12
48848;BME280;36611;51.638;5.784;2022-08-11T11:35:52;101982.63;;;36.77;21.22
48848;BME280;36611;51.638;5.784;2022-08-11T11:38:22;101985.50;;;36.82;21.05
48848;BME280;36611;51.638;5.784;2022-08-11T11:40:50;101983.03;;;36.86;20.66
48848;BME280;36611;51.638;5.784;2022-08-11T11:43:36;101981.91;;;36.87;20.98
48848;BME280;36611;51.638;5.784;2022-08-11T11:46:05;101982.25;;;36.90;20.48
48848;BME280;36611;51.638;5.784;2022-08-11T11:48:34;101971.38;;;36.94;20.41
48848;BME280;36611;51.638;5.784;2022-08-11T11:51:01;101974.78;;;36.96;20.14
48848;BME280;36611;51.638;5.784;2022-08-11T11:53:33;101979.00;;;36.99;19.82
48848;BME280;36611;51.638;5.784;2022-08-11T11:56:01;101972.63;;;37.03;19.78
48848;BME280;36611;51.638;5.784;2022-08-11T11:58:28;101981.09;;;37.08;20.14
48848;BME280;36611;51.638;5.784;2022-08-11T12:01:14;101973.28;;;37.10;20.05
48848;BME280;36611;51.638;5.784;2022-08-11T12:03:51;101968.28;;;37.12;19.75
48848;BME280;36611;51.638;5.784;2022-08-11T12:06:20;101964.97;;;37.15;19.76
48848;BME280;36611;51.638;5.784;2022-08-11T12:08:49;101955.06;;;37.25;19.48
48848;BME280;36611;51.638;5.784;2022-08-11T12:11:19;101958.78;;;37.30;19.24
48848;BME280;36611;51.638;5.784;2022-08-11T12:14:11;101951.34;;;37.41;19.17
48848;BME280;36611;51.638;5.784;2022-08-11T12:16:40;101952.00;;;37.48;19.54
48848;BME280;36611;51.638;5.784;2022-08-11T12:19:11;101949.84;;;37.55;19.51
48848;BME280;36611;51.638;5.784;2022-08-11T12:21:40;101954.31;;;37.56;19.62
48848;BME280;36611;51.638;5.784;2022-08-11T12:24:31;101942.28;;;37.56;18.97
48848;BME280;36611;51.638;5.784;2022-08-11T12:27:18;101937.03;;;37.64;19.31
48848;BME280;36611;51.638;5.784;2022-08-11T12:30:01;101933.22;;;37.70;19.18
48848;BME280;36611;51.638;5.784;2022-08-11T12:32:34;101931.31;;;37.76;18.72
48848;BME280;36611;51.638;5.784;2022-08-11T12:35:03;101924.06;;;37.80;18.44
48848;BME280;36611;51.638;5.784;2022-08-11T12:37:34;101928.03;;;37.84;18.21
48848;BME280;36611;51.638;5.784;2022-08-11T12:40:07;101921.31;;;37.85;18.45
48848;BME280;36611;51.638;5.784;2022-08-11T12:43:38;101911.06;;;37.96;18.82
48848;BME280;36611;51.638;5.784;2022-08-11T12:46:34;101917.84;;;38.00;18.30
48848;BME280;36611;51.638;5.784;2022-08-11T12:49:11;101911.09;;;38.01;18.07
48848;BME280;36611;51.638;5.784;2022-08-11T12:52:02;101903.59;;;38.06;17.90
48848;BME280;36611;51.638;5.784;2022-08-11T12:55:01;101899.44;;;38.14;17.82
48848;BME280;36611;51.638;5.784;2022-08-11T12:57:33;101902.63;;;38.23;18.11
48848;BME280;36611;51.638;5.784;2022-08-11T13:00:20;101902.91;;;38.21;17.78
48848;BME280;36611;51.638;5.784;2022-08-11T13:03:11;101894.19;;;38.18;17.47
48848;BME280;36611;51.638;5.784;2022-08-11T13:06:00;101899.25;;;38.21;17.89
48848;BME280;36611;51.638;5.784;2022-08-11T13:08:31;101894.53;;;38.26;17.73
48848;BME280;36611;51.638;5.784;2022-08-11T13:10:59;101889.22;;;38.30;17.01
48848;BME280;36611;51.638;5.784;2022-08-11T13:13:50;101892.56;;;38.27;16.99
48848;BME280;36611;51.638;5.784;2022-08-11T13:16:33;101883.56;;;38.25;17.41
48848;BME280;36611;51.638;5.784;2022-08-11T13:19:20;101890.06;;;38.30;17.46
48848;BME280;36611;51.638;5.784;2022-08-11T13:21:48;101885.59;;;38.34;17.03
48848;BME280;36611;51.638;5.784;2022-08-11T13:24:16;101879.75;;;38.41;16.88
48848;BME280;36611;51.638;5.784;2022-08-11T13:26:44;101876.97;;;38.46;16.92
48848;BME280;36611;51.638;5.784;2022-08-11T13:29:23;101869.72;;;38.50;16.40
48848;BME280;36611;51.638;5.784;2022-08-11T13:31:52;101864.44;;;38.59;16.54
48848;BME280;36611;51.638;5.784;2022-08-11T13:34:20;101865.59;;;38.63;16.67
48848;BME280;36611;51.638;5.784;2022-08-11T13:36:54;101861.38;;;38.60;16.63
48848;BME280;36611;51.638;5.784;2022-08-11T13:39:24;101855.75;;;38.60;16.30
48848;BME280;36611;51.638;5.784;2022-08-11T13:41:53;101858.81;;;38.59;16.61
48848;BME280;36611;51.638;5.784;2022-08-11T13:44:33;101852.34;;;38.58;16.13
48848;BME280;36611;51.638;5.784;2022-08-11T13:47:02;101847.59;;;38.59;16.55
48848;BME280;36611;51.638;5.784;2022-08-11T13:49:33;101849.81;;;38.57;16.39
48848;BME280;36611;51.638;5.784;2022-08-11T13:52:00;101850.38;;;38.59;16.12
48848;BME280;36611;51.638;5.784;2022-08-11T13:54:33;101844.53;;;38.60;16.60
48848;BME280;36611;51.638;5.784;2022-08-11T13:57:04;101843.75;;;38.65;16.44
48848;BME280;36611;51.638;5.784;2022-08-11T13:59:39;101841.53;;;38.72;16.54
48848;BME280;36611;51.638;5.784;2022-08-11T14:02:20;101849.72;;;38.78;16.17
48848;BME280;36611;51.638;5.784;2022-08-11T14:05:00;101841.31;;;38.84;16.21
48848;BME280;36611;51.638;5.784;2022-08-11T14:07:35;101829.25;;;38.88;16.60
48848;BME280;36611;51.638;5.784;2022-08-11T14:10:05;101840.50;;;38.93;16.44
48848;BME280;36611;51.638;5.784;2022-08-11T14:12:34;101834.88;;;38.93;16.75
48848;BME280;36611;51.638;5.784;2022-08-11T14:15:22;101831.53;;;38.96;16.67
48848;BME280;36611;51.638;5.784;2022-08-11T14:17:54;101825.34;;;38.99;16.59
48848;BME280;36611;51.638;5.784;2022-08-11T14:20:23;101832.13;;;39.03;16.54
48848;BME280;36611;51.638;5.784;2022-08-11T14:23:10;101826.50;;;39.03;16.21
48848;BME280;36611;51.638;5.784;2022-08-11T14:25:39;101822.56;;;38.99;15.86
48848;BME280;36611;51.638;5.784;2022-08-11T14:28:30;101820.28;;;38.96;15.85
48848;BME280;36611;51.638;5.784;2022-08-11T14:31:06;101819.72;;;38.94;16.12
48848;BME280;36611;51.638;5.784;2022-08-11T14:33:36;101815.78;;;38.90;15.75
48848;BME280;36611;51.638;5.784;2022-08-11T14:36:24;101816.63;;;38.91;16.25
48848;BME280;36611;51.638;5.784;2022-08-11T14:38:52;101818.31;;;38.92;16.34
48848;BME280;36611;51.638;5.784;2022-08-11T14:41:20;101811.56;;;38.93;16.46
48848;BME280;36611;51.638;5.784;2022-08-11T14:44:29;101813.56;;;38.97;16.00
48848;BME280;36611;51.638;5.784;2022-08-11T14:47:17;101814.69;;;38.96;16.34
48848;BME280;36611;51.638;5.784;2022-08-11T14:49:53;101808.47;;;38.89;16.11
48848;BME280;36611;51.638;5.784;2022-08-11T14:52:41;101801.16;;;38.83;16.15
48848;BME280;36611;51.638;5.784;2022-08-11T14:55:09;101816.59;;;38.81;16.00
48848;BME280;36611;51.638;5.784;2022-08-11T14:57:55;101802.25;;;38.77;16.00
48848;BME280;36611;51.638;5.784;2022-08-11T15:00:23;101795.22;;;38.74;15.65
48848;BME280;36611;51.638;5.784;2022-08-11T15:02:50;101809.53;;;38.73;15.83
48848;BME280;36611;51.638;5.784;2022-08-11T15:05:51;101794.91;;;38.71;16.04
48848;BME280;36611;51.638;5.784;2022-08-11T15:08:24;101797.72;;;38.71;16.04
48848;BME280;36611;51.638;5.784;2022-08-11T15:11:13;101791.00;;;38.77;16.17
48848;BME280;36611;51.638;5.784;2022-08-11T15:14:01;101792.13;;;38.76;15.96
48848;BME280;36611;51.638;5.784;2022-08-11T15:16:28;101780.03;;;38.70;16.08
48848;BME280;36611;51.638;5.784;2022-08-11T15:19:14;101783.66;;;38.66;16.49
48848;BME280;36611;51.638;5.784;2022-08-11T15:21:42;101776.88;;;38.62;16.56
48848;BME280;36611;51.638;5.784;2022-08-11T15:24:27;101778.28;;;38.64;16.65
48848;BME280;36611;51.638;5.784;2022-08-11T15:26:57;101775.81;;;38.68;16.67
48848;BME280;36611;51.638;5.784;2022-08-11T15:29:45;101766.28;;;38.69;16.55
48848;BME280;36611;51.638;5.784;2022-08-11T15:32:32;101767.94;;;38.65;15.99
48848;BME280;36611;51.638;5.784;2022-08-11T15:35:35;101763.06;;;38.55;16.42
48848;BME280;36611;51.638;5.784;2022-08-11T15:38:22;101754.88;;;38.43;16.31
48848;BME280;36611;51.638;5.784;2022-08-11T15:40:53;101755.97;;;38.37;16.41
48848;BME280;36611;51.638;5.784;2022-08-11T15:43:48;101757.91;;;38.32;16.57
48848;BME280;36611;51.638;5.784;2022-08-11T15:46:44;101757.56;;;38.23;16.38
48848;BME280;36611;51.638;5.784;2022-08-11T15:49:28;101744.91;;;38.15;16.80
48848;BME280;36611;51.638;5.784;2022-08-11T15:52:18;101750.16;;;38.07;16.46
48848;BME280;36611;51.638;5.784;2022-08-11T15:54:47;101751.78;;;37.98;16.38
48848;BME280;36611;51.638;5.784;2022-08-11T15:57:16;101745.75;;;37.84;16.41
48848;BME280;36611;51.638;5.784;2022-08-11T16:00:06;101751.84;;;37.71;16.32
48848;BME280;36611;51.638;5.784;2022-08-11T16:03:07;101744.09;;;37.56;16.61
48848;BME280;36611;51.638;5.784;2022-08-11T16:06:14;101750.44;;;37.41;16.53
48848;BME280;36611;51.638;5.784;2022-08-11T16:08:43;101738.81;;;37.28;16.62
48848;BME280;36611;51.638;5.784;2022-08-11T16:11:10;101737.22;;;37.15;16.64
48848;BME280;36611;51.638;5.784;2022-08-11T16:13:42;101745.53;;;37.05;16.74
48848;BME280;36611;51.638;5.784;2022-08-11T16:16:09;101737.34;;;36.98;16.79
48848;BME280;36611;51.638;5.784;2022-08-11T16:18:47;101737.75;;;36.85;17.29
48848;BME280;36611;51.638;5.784;2022-08-11T16:21:26;101732.78;;;36.70;17.07
48848;BME280;36611;51.638;5.784;2022-08-11T16:24:09;101729.53;;;36.56;17.50
48848;BME280;36611;51.638;5.784;2022-08-11T16:26:58;101726.03;;;36.44;17.79
48848;BME280;36611;51.638;5.784;2022-08-11T16:29:39;101718.91;;;36.37;17.67
48848;BME280;36611;51.638;5.784;2022-08-11T16:32:12;101727.38;;;36.25;17.68
48848;BME280;36611;51.638;5.784;2022-08-11T16:34:48;101726.66;;;36.13;17.37
48848;BME280;36611;51.638;5.784;2022-08-11T16:37:35;101728.72;;;36.01;17.88
48848;BME280;36611;51.638;5.784;2022-08-11T16:40:21;101721.88;;;35.91;17.93
48848;BME280;36611;51.638;5.784;2022-08-11T16:42:50;101722.31;;;35.83;17.74
48848;BME280;36611;51.638;5.784;2022-08-11T16:45:38;101718.22;;;35.74;17.96